createdAt,value
2018-07-02T00:00:24.609Z,0
2018-07-02T00:01:32.613Z,0
2018-07-02T00:02:40.680Z,0
2018-07-02T00:03:48.742Z,0
2018-07-02T00:04:56.797Z,0
2018-07-02T00:06:04.870Z,0
2018-07-02T00:07:12.940Z,0
2018-07-02T00:08:21.010Z,0
2018-07-02T00:09:29.074Z,0
2018-07-02T00:10:37.109Z,0
2018-07-02T00:11:45.209Z,0
2018-07-02T00:12:53.268Z,0
2018-07-02T00:14:01.339Z,0
2018-07-02T00:15:09.404Z,0
2018-07-02T00:16:17.441Z,0
2018-07-02T00:17:25.548Z,0
2018-07-02T00:18:33.606Z,0
2018-07-02T00:19:41.685Z,0
2018-07-02T00:20:49.744Z,0
2018-07-02T00:21:57.795Z,0
2018-07-02T00:23:05.882Z,0
2018-07-02T00:24:13.954Z,0
2018-07-02T00:25:22.020Z,0
2018-07-02T00:26:30.065Z,0
2018-07-02T00:27:38.147Z,0
2018-07-02T00:28:46.214Z,0
2018-07-02T00:29:54.282Z,0
2018-07-02T00:31:02.336Z,0
2018-07-02T00:32:10.415Z,0
2018-07-02T00:33:18.476Z,0
2018-07-02T00:34:26.546Z,0
2018-07-02T00:35:34.627Z,0
2018-07-02T00:36:42.677Z,0
2018-07-02T00:37:50.741Z,0
2018-07-02T00:38:58.808Z,0
2018-07-02T00:40:06.854Z,0
2018-07-02T00:41:14.930Z,0
2018-07-02T00:42:23.006Z,0
2018-07-02T00:43:31.076Z,0
2018-07-02T00:44:39.147Z,0
2018-07-02T00:45:47.176Z,0
2018-07-02T00:46:55.275Z,0
2018-07-02T00:48:05.934Z,0
2018-07-02T00:49:11.409Z,0
2018-07-02T00:50:19.480Z,0
2018-07-02T00:51:27.508Z,0
2018-07-02T00:52:35.595Z,0
2018-07-02T00:53:43.670Z,0
2018-07-02T00:54:51.721Z,0
2018-07-02T00:55:59.787Z,0
2018-07-02T00:57:07.858Z,0
2018-07-02T00:58:15.933Z,0
2018-07-02T00:59:23.978Z,0
2018-07-02T01:00:32.063Z,0
2018-07-02T01:01:40.121Z,0
2018-07-02T01:02:48.192Z,0
2018-07-02T01:03:56.256Z,0
2018-07-02T01:05:04.322Z,0
2018-07-02T01:06:12.401Z,0
2018-07-02T01:07:20.464Z,0
2018-07-02T01:08:28.534Z,0
2018-07-02T01:09:36.603Z,0
2018-07-02T01:10:44.652Z,0
2018-07-02T01:11:52.725Z,0
2018-07-02T01:13:00.791Z,0
2018-07-02T01:14:08.848Z,0
2018-07-02T01:15:16.889Z,0
2018-07-02T01:16:24.992Z,0
2018-07-02T01:17:33.057Z,0
2018-07-02T01:18:41.127Z,0
2018-07-02T01:19:49.184Z,0
2018-07-02T01:20:57.220Z,0
2018-07-02T01:22:05.324Z,0
2018-07-02T01:23:13.387Z,0
2018-07-02T01:24:21.451Z,0
2018-07-02T01:25:29.529Z,0
2018-07-02T01:26:37.544Z,0
2018-07-02T01:27:45.642Z,0
2018-07-02T01:28:53.718Z,0
2018-07-02T01:30:01.776Z,0
2018-07-02T01:31:09.840Z,0
2018-07-02T01:32:17.906Z,0
2018-07-02T01:33:25.990Z,0
2018-07-02T01:34:34.045Z,0
2018-07-02T01:35:42.114Z,0
2018-07-02T01:36:50.173Z,0
2018-07-02T01:37:58.235Z,0
2018-07-02T01:39:06.317Z,0
2018-07-02T01:40:14.370Z,0
2018-07-02T01:41:22.438Z,0
2018-07-02T01:42:30.519Z,0
2018-07-02T01:43:38.578Z,0
2018-07-02T01:44:46.637Z,0
2018-07-02T01:45:54.697Z,0
2018-07-02T01:47:02.778Z,0
2018-07-02T01:48:10.850Z,0
2018-07-02T01:49:18.901Z,0
2018-07-02T01:50:26.945Z,0
2018-07-02T01:51:35.037Z,0
2018-07-02T01:52:43.114Z,0
2018-07-02T01:53:51.176Z,0
2018-07-02T01:54:59.241Z,0
2018-07-02T01:56:07.283Z,0
2018-07-02T01:57:15.374Z,0
2018-07-02T01:58:23.438Z,0
2018-07-02T01:59:31.525Z,0
2018-07-02T02:00:39.572Z,0
2018-07-02T02:01:47.616Z,0
2018-07-02T02:02:55.701Z,0
2018-07-02T02:04:03.767Z,0
2018-07-02T02:05:11.847Z,0
2018-07-02T02:06:19.908Z,0
2018-07-02T02:07:27.967Z,0
2018-07-02T02:08:36.037Z,0
2018-07-02T02:09:44.102Z,0
2018-07-02T02:10:52.171Z,0
2018-07-02T02:12:00.230Z,0
2018-07-02T02:13:08.297Z,0
2018-07-02T02:14:16.366Z,0
2018-07-02T02:15:24.436Z,0
2018-07-02T02:16:32.495Z,0
2018-07-02T02:17:40.560Z,0
2018-07-02T02:18:48.628Z,0
2018-07-02T02:19:56.687Z,0
2018-07-02T02:21:04.765Z,0
2018-07-02T02:22:12.884Z,0
2018-07-02T02:23:20.890Z,0
2018-07-02T02:24:28.968Z,0
2018-07-02T02:25:36.995Z,0
2018-07-02T02:26:45.074Z,0
2018-07-02T02:27:53.159Z,0
2018-07-02T02:29:01.227Z,0
2018-07-02T02:30:09.285Z,0
2018-07-02T02:31:17.332Z,0
2018-07-02T02:32:25.422Z,0
2018-07-02T02:33:33.492Z,0
2018-07-02T02:34:41.556Z,0
2018-07-02T02:35:49.625Z,0
2018-07-02T02:36:57.671Z,0
2018-07-02T02:38:05.759Z,0
2018-07-02T02:39:13.832Z,0
2018-07-02T02:40:21.887Z,0
2018-07-02T02:41:29.955Z,0
2018-07-02T02:42:38.017Z,0
2018-07-02T02:43:46.088Z,0
2018-07-02T02:44:54.210Z,0
2018-07-02T02:46:02.223Z,0
2018-07-02T02:47:10.300Z,0
2018-07-02T02:48:18.367Z,4
2018-07-02T02:49:26.417Z,4
2018-07-02T02:50:34.489Z,0
2018-07-02T02:51:42.569Z,4
2018-07-02T02:52:50.629Z,4
2018-07-02T02:53:58.694Z,0
2018-07-02T02:55:06.748Z,4
2018-07-02T02:56:14.825Z,4
2018-07-02T02:57:22.893Z,8
2018-07-02T02:58:30.957Z,8
2018-07-02T02:59:39.033Z,8
2018-07-02T03:00:47.071Z,8
2018-07-02T03:01:55.164Z,12
2018-07-02T03:03:03.239Z,12
2018-07-02T03:04:11.294Z,16
2018-07-02T03:05:19.365Z,16
2018-07-02T03:06:27.405Z,20
2018-07-02T03:07:35.487Z,24
2018-07-02T03:08:44.185Z,28
2018-07-02T03:09:51.661Z,32
2018-07-02T03:10:59.691Z,36
2018-07-02T03:12:07.745Z,44
2018-07-02T03:13:15.815Z,48
2018-07-02T03:14:23.888Z,56
2018-07-02T03:15:31.958Z,64
2018-07-02T03:16:40.030Z,72
2018-07-02T03:17:48.089Z,84
2018-07-02T03:18:56.178Z,96
2018-07-02T03:20:04.222Z,104
2018-07-02T03:21:12.295Z,120
2018-07-02T03:22:20.361Z,136
2018-07-02T03:23:28.433Z,148
2018-07-02T03:24:36.480Z,168
2018-07-02T03:25:44.535Z,184
2018-07-02T03:26:52.619Z,204
2018-07-02T03:28:00.685Z,224
2018-07-02T03:29:08.749Z,248
2018-07-02T03:30:16.802Z,272
2018-07-02T03:31:24.877Z,296
2018-07-02T03:32:32.955Z,324
2018-07-02T03:33:41.014Z,348
2018-07-02T03:34:49.072Z,380
2018-07-02T03:35:57.123Z,408
2018-07-02T03:37:05.213Z,436
2018-07-02T03:38:13.274Z,472
2018-07-02T03:39:23.901Z,504
2018-07-02T03:40:29.421Z,540
2018-07-02T03:41:37.453Z,580
2018-07-02T03:42:45.555Z,616
2018-07-02T03:43:53.607Z,652
2018-07-02T03:45:01.681Z,692
2018-07-02T03:46:09.736Z,732
2018-07-02T03:47:17.801Z,776
2018-07-02T03:48:25.871Z,824
2018-07-02T03:49:33.948Z,868
2018-07-02T03:50:42.012Z,912
2018-07-02T03:51:50.079Z,960
2018-07-02T03:52:58.155Z,1008
2018-07-02T03:54:08.117Z,1060
2018-07-02T03:55:14.274Z,1108
2018-07-02T03:56:22.337Z,1160
2018-07-02T03:57:30.425Z,1212
2018-07-02T03:58:38.472Z,1264
2018-07-02T03:59:46.537Z,1316
2018-07-02T04:00:56.621Z,1372
2018-07-02T04:02:04.677Z,1420
2018-07-02T04:03:12.765Z,1476
2018-07-02T04:04:20.792Z,1528
2018-07-02T04:05:28.867Z,1584
2018-07-02T04:06:37.003Z,1636
2018-07-02T04:07:45.010Z,1696
2018-07-02T04:08:53.074Z,1744
2018-07-02T04:10:01.146Z,1796
2018-07-02T04:11:09.207Z,1844
2018-07-02T04:12:17.247Z,1900
2018-07-02T04:13:27.914Z,1952
2018-07-02T04:14:33.403Z,2000
2018-07-02T04:15:41.457Z,2052
2018-07-02T04:16:49.536Z,2108
2018-07-02T04:17:57.708Z,2152
2018-07-02T04:19:05.668Z,2204
2018-07-02T04:20:13.726Z,2264
2018-07-02T04:21:21.781Z,2312
2018-07-02T04:22:29.861Z,2360
2018-07-02T04:23:37.918Z,2408
2018-07-02T04:24:45.997Z,2460
2018-07-02T04:25:54.095Z,2512
2018-07-02T04:27:02.119Z,2556
2018-07-02T04:28:10.212Z,2612
2018-07-02T04:29:18.261Z,2664
2018-07-02T04:30:26.308Z,2712
2018-07-02T04:31:34.386Z,2764
2018-07-02T04:32:42.485Z,2812
2018-07-02T04:33:50.520Z,2864
2018-07-02T04:34:58.584Z,2912
2018-07-02T04:36:06.705Z,2960
2018-07-02T04:37:14.699Z,3008
2018-07-02T04:38:22.775Z,3056
2018-07-02T04:39:30.864Z,3104
2018-07-02T04:40:38.904Z,3148
2018-07-02T04:41:46.963Z,3196
2018-07-02T04:42:55.047Z,3240
2018-07-02T04:44:03.101Z,3284
2018-07-02T04:45:11.227Z,3328
2018-07-02T04:46:19.235Z,3376
2018-07-02T04:47:30.129Z,3416
2018-07-02T04:48:35.362Z,3464
2018-07-02T04:49:43.439Z,3512
2018-07-02T04:50:51.496Z,3560
2018-07-02T04:51:59.574Z,3624
2018-07-02T04:53:10.054Z,3684
2018-07-02T04:54:21.917Z,3744
2018-07-02T04:55:26.785Z,3796
2018-07-02T04:56:34.857Z,3852
2018-07-02T04:57:42.934Z,3904
2018-07-02T04:58:50.990Z,3952
2018-07-02T04:59:59.061Z,4008
2018-07-02T05:01:07.099Z,4064
2018-07-02T05:02:15.199Z,4124
2018-07-02T05:03:23.263Z,4184
2018-07-02T05:04:31.453Z,4256
2018-07-02T05:05:39.393Z,4324
2018-07-02T05:06:47.433Z,4464
2018-07-02T05:07:55.519Z,5212
2018-07-02T05:09:03.591Z,6580
2018-07-02T05:10:11.658Z,5300
2018-07-02T05:11:22.405Z,4908
2018-07-02T05:12:27.843Z,4804
2018-07-02T05:13:35.861Z,4776
2018-07-02T05:14:43.927Z,4948
2018-07-02T05:15:51.989Z,4828
2018-07-02T05:17:00.062Z,4848
2018-07-02T05:18:08.112Z,4876
2018-07-02T05:19:16.176Z,4892
2018-07-02T05:20:24.248Z,4932
2018-07-02T05:21:32.436Z,4968
2018-07-02T05:22:40.390Z,5012
2018-07-02T05:23:48.447Z,5056
2018-07-02T05:24:56.517Z,5092
2018-07-02T05:26:04.590Z,5132
2018-07-02T05:27:12.643Z,5160
2018-07-02T05:28:20.722Z,5188
2018-07-02T05:29:28.785Z,5216
2018-07-02T05:30:36.838Z,5240
2018-07-02T05:31:44.920Z,5256
2018-07-02T05:32:52.986Z,5312
2018-07-02T05:34:01.048Z,5316
2018-07-02T05:35:09.117Z,5696
2018-07-02T05:36:17.170Z,5620
2018-07-02T05:37:25.251Z,5388
2018-07-02T05:38:33.325Z,5412
2018-07-02T05:39:41.387Z,5440
2018-07-02T05:40:49.444Z,5452
2018-07-02T05:41:57.499Z,5460
2018-07-02T05:43:05.604Z,5476
2018-07-02T05:44:13.651Z,5504
2018-07-02T05:45:21.712Z,5520
2018-07-02T05:46:29.787Z,5556
2018-07-02T05:47:37.840Z,5588
2018-07-02T05:48:45.914Z,5616
2018-07-02T05:49:54.001Z,5656
2018-07-02T05:51:02.041Z,5700
2018-07-02T05:52:10.135Z,5732
2018-07-02T05:53:18.185Z,5768
2018-07-02T05:54:26.253Z,5788
2018-07-02T05:55:34.327Z,5816
2018-07-02T05:56:42.381Z,5848
2018-07-02T05:57:50.555Z,5876
2018-07-02T05:58:58.529Z,5916
2018-07-02T06:00:06.653Z,5960
2018-07-02T06:01:14.656Z,6008
2018-07-02T06:02:22.732Z,6036
2018-07-02T06:03:30.963Z,6076
2018-07-02T06:04:38.861Z,6116
2018-07-02T06:05:46.906Z,6156
2018-07-02T06:06:54.991Z,6184
2018-07-02T06:08:03.266Z,6224
2018-07-02T06:09:11.133Z,6260
2018-07-02T06:10:19.195Z,6284
2018-07-02T06:11:27.242Z,6340
2018-07-02T06:12:35.340Z,6396
2018-07-02T06:13:43.402Z,6448
2018-07-02T06:14:51.472Z,6500
2018-07-02T06:15:59.548Z,6588
2018-07-02T06:17:07.570Z,6728
2018-07-02T06:18:15.672Z,6896
2018-07-02T06:19:24.293Z,7004
2018-07-02T06:20:32.124Z,7096
2018-07-02T06:21:40.485Z,7192
2018-07-02T06:22:48.567Z,7316
2018-07-02T06:23:56.627Z,7440
2018-07-02T06:25:04.073Z,7532
2018-07-02T06:26:12.138Z,7560
2018-07-02T06:29:36.366Z,7580
2018-07-02T06:30:44.502Z,7548
2018-07-02T06:31:55.185Z,7568
2018-07-02T06:33:00.572Z,7620
2018-07-02T06:34:08.654Z,7684
2018-07-02T06:35:16.714Z,7744
2018-07-02T06:36:24.780Z,7788
2018-07-02T06:37:32.846Z,7820
2018-07-02T06:38:40.921Z,7856
2018-07-02T06:39:48.980Z,7888
2018-07-02T06:40:57.094Z,7920
2018-07-02T06:42:05.161Z,7944
2018-07-02T06:43:13.186Z,7984
2018-07-02T06:44:21.264Z,8044
2018-07-02T06:45:29.327Z,8120
2018-07-02T06:46:37.398Z,8232
2018-07-02T06:47:45.466Z,8320
2018-07-02T06:48:53.532Z,8360
2018-07-02T06:50:01.618Z,8424
2018-07-02T06:51:09.658Z,8484
2018-07-02T06:52:17.730Z,8560
2018-07-02T06:53:25.800Z,8652
2018-07-02T06:54:33.870Z,8732
2018-07-02T06:55:41.903Z,8816
2018-07-02T06:56:50.018Z,8904
2018-07-02T06:57:58.087Z,8988
2018-07-02T06:59:06.144Z,9228
2018-07-02T07:00:14.213Z,9536
2018-07-02T07:01:22.413Z,11096
2018-07-02T07:02:30.346Z,12120
2018-07-02T07:03:38.420Z,11848
2018-07-02T07:04:46.494Z,13792
2018-07-02T07:05:54.554Z,15732
2018-07-02T07:07:02.608Z,17040
2018-07-02T07:08:10.687Z,21856
2018-07-02T07:09:18.759Z,26528
2018-07-02T07:10:26.827Z,16336
2018-07-02T07:11:34.896Z,16780
2018-07-02T07:12:42.978Z,28224
2018-07-02T07:13:51.051Z,37920
2018-07-02T07:14:59.122Z,30944
2018-07-02T07:16:10.234Z,28192
2018-07-02T07:18:25.350Z,37760
2018-07-02T07:19:31.396Z,41120
2018-07-02T07:20:39.466Z,54144
2018-07-02T07:21:47.538Z,66912
2018-07-02T07:22:55.609Z,64640
2018-07-02T07:24:03.684Z,57184
2018-07-02T07:25:11.737Z,57632
2018-07-02T07:26:19.816Z,66176
2018-07-02T07:27:27.912Z,40320
2018-07-02T07:28:35.968Z,27104
2018-07-02T07:29:44.049Z,46528
2018-07-02T07:30:52.089Z,49536
2018-07-02T07:32:00.225Z,49472
2018-07-02T07:33:08.271Z,53408
2018-07-02T07:34:16.345Z,59488
2018-07-02T07:35:24.426Z,64096
2018-07-02T07:36:32.478Z,59232
2018-07-02T07:37:40.574Z,54112
2018-07-02T07:38:48.638Z,53056
2018-07-02T07:39:56.717Z,52352
2018-07-02T07:41:04.803Z,56800
2018-07-02T07:42:12.861Z,59712
2018-07-02T07:43:20.947Z,58080
2018-07-02T07:44:29.033Z,58432
2018-07-02T07:45:42.957Z,58048
2018-07-02T07:46:51.027Z,58400
2018-07-02T07:47:59.129Z,59904
2018-07-02T07:49:07.185Z,58432
2018-07-02T07:50:15.264Z,58848
2018-07-02T07:52:49.549Z,62592
2018-07-02T07:53:42.112Z,61952
2018-07-02T07:54:50.188Z,60928
2018-07-02T07:55:58.276Z,65344
2018-07-02T07:57:07.119Z,66304
2018-07-02T07:58:15.039Z,64448
2018-07-02T07:59:23.178Z,64864
2018-07-02T08:00:31.207Z,65088
2018-07-02T08:01:39.286Z,65824
2018-07-02T08:02:47.354Z,68704
2018-07-02T08:03:55.447Z,70528
2018-07-02T08:05:03.526Z,70784
2018-07-02T08:06:11.605Z,71552
2018-07-02T08:07:19.696Z,74624
2018-07-02T08:08:27.761Z,71424
2018-07-02T08:09:35.853Z,73312
2018-07-02T08:10:43.927Z,74560
2018-07-02T08:11:52.001Z,74464
2018-07-02T08:13:00.102Z,73184
2018-07-02T08:14:08.179Z,75424
2018-07-02T08:15:16.259Z,76704
2018-07-02T08:16:24.341Z,77952
2018-07-02T08:17:32.392Z,78688
2018-07-02T08:18:40.511Z,77376
2018-07-02T08:19:48.580Z,77280
2018-07-02T08:20:56.663Z,75552
2018-07-02T08:22:04.735Z,74848
2018-07-02T08:23:12.825Z,76256
2018-07-02T08:24:20.939Z,77856
2018-07-02T08:25:28.997Z,78336
2018-07-02T08:26:37.076Z,79072
2018-07-02T08:27:45.164Z,81344
2018-07-02T08:28:53.242Z,81504
2018-07-02T08:30:01.324Z,80736
2018-07-02T08:31:09.405Z,80480
2018-07-02T08:32:17.484Z,78144
2018-07-02T08:33:25.583Z,80672
2018-07-02T08:34:33.648Z,79680
2018-07-02T08:35:41.717Z,80320
2018-07-02T08:36:49.813Z,82496
2018-07-02T08:37:57.895Z,84160
2018-07-02T08:39:05.970Z,83040
2018-07-02T08:40:14.065Z,81664
2018-07-02T08:41:22.127Z,81952
2018-07-02T08:42:30.234Z,83776
2018-07-02T08:43:38.311Z,82016
2018-07-02T08:44:46.401Z,75808
2018-07-02T08:45:54.499Z,74144
2018-07-02T08:47:02.561Z,76768
2018-07-02T08:48:10.632Z,78848
2018-07-02T08:49:18.726Z,80736
2018-07-02T08:50:26.813Z,81824
2018-07-02T08:51:34.891Z,83360
2018-07-02T08:52:43.042Z,79296
2018-07-02T08:53:51.056Z,85216
2018-07-02T08:54:59.163Z,75520
2018-07-02T08:56:07.256Z,83200
2018-07-02T08:57:15.312Z,73824
2018-07-02T08:58:23.450Z,76736
2018-07-02T08:59:31.477Z,72960
2018-07-02T09:00:39.559Z,81504
2018-07-02T09:01:47.658Z,86080
2018-07-02T09:02:55.732Z,87360
2018-07-02T09:04:03.818Z,87136
2018-07-02T09:05:11.866Z,88896
2018-07-02T09:06:19.986Z,87328
2018-07-02T09:07:28.077Z,85536
2018-07-02T09:08:36.185Z,86400
2018-07-02T09:09:44.231Z,89152
2018-07-02T09:10:52.318Z,90784
2018-07-02T09:12:00.414Z,89440
2018-07-02T09:13:08.483Z,88672
2018-07-02T09:14:16.563Z,85472
2018-07-02T09:15:24.653Z,84160
2018-07-02T09:16:32.725Z,90112
2018-07-02T09:17:40.821Z,93248
2018-07-02T09:18:48.890Z,93024
2018-07-02T09:19:56.971Z,82432
2018-07-02T09:21:05.058Z,71488
2018-07-02T09:22:13.138Z,81856
2018-07-02T09:23:21.234Z,81184
2018-07-02T09:24:29.311Z,76416
2018-07-02T09:25:37.391Z,74336
2018-07-02T09:26:45.479Z,83424
2018-07-02T09:27:53.557Z,80960
2018-07-02T09:29:01.637Z,86464
2018-07-02T09:30:09.717Z,70656
2018-07-02T09:31:17.814Z,27968
2018-07-02T09:32:25.975Z,10472
2018-07-02T09:33:33.962Z,10280
2018-07-02T09:34:42.010Z,10192
2018-07-02T09:35:50.129Z,10244
2018-07-02T09:36:58.202Z,10348
2018-07-02T09:38:06.288Z,10324
2018-07-02T09:39:14.377Z,10224
2018-07-02T09:40:22.425Z,10192
2018-07-02T09:41:30.530Z,10272
2018-07-02T09:42:38.619Z,10276
2018-07-02T09:43:46.709Z,10044
2018-07-02T09:44:54.772Z,9784
2018-07-02T09:46:02.837Z,9628
2018-07-02T09:47:10.918Z,9460
2018-07-02T09:48:18.996Z,9296
2018-07-02T09:49:27.077Z,9160
2018-07-02T09:50:35.147Z,9052
2018-07-02T09:51:43.231Z,8940
2018-07-02T09:52:51.311Z,8812
2018-07-02T09:53:59.387Z,8700
2018-07-02T09:55:07.459Z,8608
2018-07-02T09:56:15.534Z,8564
2018-07-02T09:57:23.634Z,8520
2018-07-02T09:58:31.677Z,8464
2018-07-02T09:59:39.765Z,8400
2018-07-02T10:00:47.832Z,8332
2018-07-02T10:01:55.906Z,8276
2018-07-02T10:03:03.982Z,8216
2018-07-02T10:04:12.154Z,8164
2018-07-02T10:05:20.131Z,8128
2018-07-02T10:06:28.304Z,8108
2018-07-02T10:07:36.294Z,8104
2018-07-02T10:08:44.364Z,8084
2018-07-02T10:09:52.413Z,8040
2018-07-02T10:11:00.518Z,7996
2018-07-02T10:12:08.590Z,7952
2018-07-02T10:13:16.669Z,7948
2018-07-02T10:14:24.750Z,7956
2018-07-02T10:15:32.791Z,7984
2018-07-02T10:16:40.896Z,7960
2018-07-02T10:17:48.971Z,7908
2018-07-02T10:18:57.033Z,7864
2018-07-02T10:20:05.109Z,7840
2018-07-02T10:21:13.191Z,7812
2018-07-02T10:22:21.254Z,7756
2018-07-02T10:23:29.360Z,7700
2018-07-02T10:24:37.397Z,7660
2018-07-02T10:25:45.484Z,7648
2018-07-02T10:26:53.543Z,7648
2018-07-02T10:28:01.620Z,7632
2018-07-02T10:29:09.715Z,7600
2018-07-02T10:30:17.763Z,7556
2018-07-02T10:31:25.959Z,7516
2018-07-02T10:32:33.920Z,7504
2018-07-02T10:33:41.966Z,7480
2018-07-02T10:34:50.133Z,7436
2018-07-02T10:35:58.134Z,7380
2018-07-02T10:37:06.207Z,7336
2018-07-02T10:38:14.324Z,7320
2018-07-02T10:39:22.339Z,7284
2018-07-02T10:40:31.228Z,7228
2018-07-02T10:41:38.517Z,7188
2018-07-02T10:42:46.589Z,7156
2018-07-02T10:43:54.653Z,7140
2018-07-02T10:45:02.724Z,7100
2018-07-02T10:46:10.800Z,7040
2018-07-02T10:47:18.889Z,6976
2018-07-02T10:48:26.947Z,6940
2018-07-02T10:49:35.022Z,6928
2018-07-02T10:50:43.101Z,6916
2018-07-02T10:51:51.177Z,6896
2018-07-02T10:52:59.248Z,6892
2018-07-02T10:54:07.326Z,6900
2018-07-02T10:55:15.396Z,6864
2018-07-02T10:56:23.456Z,6836
2018-07-02T10:57:31.536Z,6816
2018-07-02T10:58:39.610Z,6812
2018-07-02T10:59:47.686Z,6796
2018-07-02T11:00:55.770Z,6776
2018-07-02T11:02:03.840Z,6752
2018-07-02T11:03:11.891Z,6736
2018-07-02T11:04:19.992Z,6732
2018-07-02T11:05:28.065Z,6728
2018-07-02T11:06:36.118Z,6728
2018-07-02T11:07:44.202Z,6728
2018-07-02T11:08:52.263Z,6712
2018-07-02T11:10:00.355Z,6680
2018-07-02T11:11:08.460Z,6656
2018-07-02T11:12:16.518Z,6652
2018-07-02T11:13:24.578Z,6692
2018-07-02T11:14:32.637Z,6732
2018-07-02T11:15:40.711Z,6740
2018-07-02T11:16:48.811Z,6712
2018-07-02T11:17:56.858Z,6684
2018-07-02T11:19:04.934Z,6636
2018-07-02T11:20:13.021Z,6604
2018-07-02T11:21:21.092Z,6580
2018-07-02T11:22:29.151Z,6548
2018-07-02T11:23:37.290Z,6516
2018-07-02T11:24:45.323Z,6484
2018-07-02T11:25:53.384Z,6464
2018-07-02T11:27:01.462Z,6432
2018-07-02T11:28:09.540Z,6384
2018-07-02T11:29:17.603Z,6316
2018-07-02T11:30:25.678Z,6260
2018-07-02T11:31:33.748Z,6208
2018-07-02T11:32:41.803Z,6176
2018-07-02T11:33:49.912Z,6144
2018-07-02T11:34:58.861Z,6104
2018-07-02T11:36:06.020Z,6040
2018-07-02T11:37:14.133Z,5976
2018-07-02T11:38:22.173Z,5924
2018-07-02T11:39:30.275Z,5876
2018-07-02T11:40:38.340Z,5848
2018-07-02T11:41:46.413Z,5832
2018-07-02T11:42:54.490Z,5816
2018-07-02T11:44:02.551Z,5784
2018-07-02T11:45:10.635Z,5744
2018-07-02T11:46:18.714Z,5708
2018-07-02T11:47:26.792Z,5692
2018-07-02T11:48:34.854Z,5676
2018-07-02T11:49:42.946Z,5652
2018-07-02T11:50:51.020Z,5636
2018-07-02T11:51:59.089Z,5624
2018-07-02T11:53:07.175Z,5608
2018-07-02T11:54:15.231Z,5584
2018-07-02T11:55:23.319Z,5548
2018-07-02T11:56:31.380Z,5516
2018-07-02T11:57:39.455Z,5496
2018-07-02T11:58:47.542Z,5476
2018-07-02T11:59:55.616Z,5452
2018-07-02T12:01:03.680Z,5416
2018-07-02T12:02:11.737Z,5384
2018-07-02T12:03:19.834Z,5352
2018-07-02T12:04:27.899Z,5328
2018-07-02T12:05:35.976Z,5288
2018-07-02T12:06:44.058Z,5252
2018-07-02T12:07:52.100Z,5220
2018-07-02T12:09:00.197Z,5200
2018-07-02T12:10:08.288Z,5172
2018-07-02T12:11:16.342Z,5136
2018-07-02T12:12:24.417Z,5108
2018-07-02T12:13:32.480Z,5076
2018-07-02T12:14:40.563Z,5044
2018-07-02T12:15:48.638Z,5020
2018-07-02T12:16:56.727Z,4996
2018-07-02T12:18:04.794Z,4976
2018-07-02T12:19:12.878Z,4960
2018-07-02T12:20:20.945Z,4948
2018-07-02T12:21:29.023Z,4924
2018-07-02T12:22:37.119Z,4900
2018-07-02T12:23:45.161Z,4884
2018-07-02T12:24:53.261Z,4860
2018-07-02T12:26:01.314Z,4848
2018-07-02T12:27:09.387Z,4840
2018-07-02T12:28:17.460Z,4820
2018-07-02T12:29:25.574Z,4788
2018-07-02T12:30:33.605Z,4764
2018-07-02T12:31:41.674Z,4748
2018-07-02T12:32:49.769Z,4732
2018-07-02T12:33:57.833Z,4712
2018-07-02T12:35:05.912Z,4700
2018-07-02T12:36:13.986Z,4688
2018-07-02T12:37:22.032Z,4676
2018-07-02T12:38:30.117Z,4660
2018-07-02T12:39:38.206Z,4648
2018-07-02T12:40:46.273Z,4636
2018-07-02T12:41:54.352Z,4624
2018-07-02T12:43:02.394Z,4608
2018-07-02T12:44:10.504Z,4596
2018-07-02T12:45:18.570Z,4580
2018-07-02T12:46:26.648Z,4576
2018-07-02T12:47:34.706Z,4580
2018-07-02T12:48:42.778Z,4580
2018-07-02T12:49:50.869Z,4584
2018-07-02T12:50:58.954Z,4592
2018-07-02T12:52:07.017Z,4592
2018-07-02T12:53:15.092Z,4592
2018-07-02T12:54:23.287Z,4596
2018-07-02T12:55:31.245Z,4600
2018-07-02T12:56:39.312Z,4620
2018-07-02T12:57:47.392Z,4624
2018-07-02T12:58:55.463Z,4632
2018-07-02T13:00:03.546Z,4624
2018-07-02T13:01:11.599Z,4616
2018-07-02T13:02:19.688Z,4616
2018-07-02T13:03:27.754Z,4608
2018-07-02T13:04:35.829Z,4596
2018-07-02T13:05:43.909Z,4592
2018-07-02T13:06:51.961Z,4588
2018-07-02T13:08:00.057Z,4588
2018-07-02T13:09:08.131Z,4572
2018-07-02T13:10:16.199Z,4568
2018-07-02T13:11:24.275Z,4568
2018-07-02T13:12:32.330Z,4556
2018-07-02T13:13:40.493Z,4552
2018-07-02T13:14:48.508Z,4552
2018-07-02T13:15:56.558Z,4552
2018-07-02T13:17:04.649Z,4560
2018-07-02T13:18:12.736Z,4560
2018-07-02T13:19:20.789Z,4564
2018-07-02T13:20:28.870Z,4556
2018-07-02T13:21:36.953Z,4552
2018-07-02T13:22:45.026Z,4548
2018-07-02T13:23:53.119Z,4548
2018-07-02T13:25:01.170Z,4540
2018-07-02T13:26:09.276Z,4540
2018-07-02T13:27:17.311Z,4540
2018-07-02T13:28:25.402Z,4536
2018-07-02T13:29:33.461Z,4536
2018-07-02T13:30:41.549Z,4540
2018-07-02T13:31:49.610Z,4536
2018-07-02T13:32:57.684Z,4528
2018-07-02T13:34:05.753Z,4532
2018-07-02T13:35:13.836Z,4540
2018-07-02T13:36:21.916Z,4544
2018-07-02T13:37:29.990Z,4556
2018-07-02T13:38:38.068Z,4560
2018-07-02T13:39:46.136Z,4568
2018-07-02T13:40:54.212Z,4564
2018-07-02T13:42:02.253Z,4556
2018-07-02T13:43:10.352Z,4552
2018-07-02T13:44:18.417Z,4536
2018-07-02T13:45:26.502Z,4516
2018-07-02T13:46:34.573Z,4496
2018-07-02T13:47:42.635Z,4484
2018-07-02T13:48:50.725Z,4476
2018-07-02T13:49:58.805Z,4468
2018-07-02T13:51:06.947Z,4460
2018-07-02T13:52:14.958Z,4476
2018-07-02T13:53:23.028Z,4488
2018-07-02T13:54:31.105Z,4496
2018-07-02T13:55:39.179Z,4500
2018-07-02T13:56:47.250Z,4496
2018-07-02T13:57:55.316Z,4492
2018-07-02T13:59:03.390Z,4492
2018-07-02T14:00:11.526Z,4492
2018-07-02T14:01:19.549Z,4488
2018-07-02T14:02:27.652Z,4488
2018-07-02T14:03:35.718Z,4488
2018-07-02T14:04:43.761Z,4492
2018-07-02T14:05:51.818Z,4500
2018-07-02T14:06:59.913Z,4504
2018-07-02T14:08:07.965Z,4508
2018-07-02T14:09:16.055Z,4508
2018-07-02T14:10:24.137Z,4504
2018-07-02T14:11:32.176Z,4512
2018-07-02T14:12:40.293Z,4500
2018-07-02T14:13:48.366Z,4492
2018-07-02T14:14:56.444Z,4496
2018-07-02T14:16:04.514Z,4488
2018-07-02T14:17:12.560Z,4492
2018-07-02T14:18:20.664Z,4496
2018-07-02T14:19:28.731Z,4488
2018-07-02T14:20:36.807Z,4476
2018-07-02T14:21:44.870Z,4468
2018-07-02T14:22:52.958Z,4464
2018-07-02T14:24:01.018Z,4464
2018-07-02T14:25:09.104Z,4460
2018-07-02T14:26:17.181Z,4436
2018-07-02T14:27:25.250Z,4420
2018-07-02T14:28:33.314Z,4400
2018-07-02T14:29:41.378Z,4400
2018-07-02T14:30:49.458Z,4404
2018-07-02T14:31:57.542Z,4412
2018-07-02T14:33:05.626Z,4412
2018-07-02T14:34:13.696Z,4404
2018-07-02T14:35:21.802Z,4404
2018-07-02T14:36:29.835Z,4392
2018-07-02T14:37:37.914Z,4380
2018-07-02T14:38:45.989Z,4376
2018-07-02T14:39:54.049Z,4376
2018-07-02T14:41:02.113Z,4384
2018-07-02T14:42:10.208Z,4380
2018-07-02T14:43:18.284Z,4372
2018-07-02T14:44:26.354Z,4360
2018-07-02T14:45:34.664Z,4356
2018-07-02T14:46:42.478Z,4360
2018-07-02T14:47:50.583Z,4340
2018-07-02T14:48:58.654Z,4332
2018-07-02T14:50:06.724Z,4312
2018-07-02T14:51:14.798Z,4288
2018-07-02T14:52:22.880Z,4280
2018-07-02T14:53:30.941Z,4264
2018-07-02T14:54:39.022Z,4260
2018-07-02T14:55:47.088Z,4252
2018-07-02T14:56:55.172Z,4244
2018-07-02T14:58:03.240Z,4236
2018-07-02T14:59:11.320Z,4244
2018-07-02T15:00:19.391Z,4252
2018-07-02T15:01:27.460Z,4252
2018-07-02T15:02:35.530Z,4248
2018-07-02T15:03:43.591Z,4248
2018-07-02T15:04:51.667Z,4244
2018-07-02T15:05:59.752Z,4236
2018-07-02T15:07:07.837Z,4236
2018-07-02T15:08:15.911Z,4240
2018-07-02T15:09:23.977Z,4244
2018-07-02T15:10:32.016Z,4244
2018-07-02T15:11:40.124Z,4248
2018-07-02T15:12:48.197Z,4248
2018-07-02T15:13:56.288Z,4244
2018-07-02T15:15:04.351Z,4240
2018-07-02T15:16:12.396Z,4236
2018-07-02T15:17:20.492Z,4224
2018-07-02T15:18:28.568Z,4200
2018-07-02T15:19:36.643Z,4200
2018-07-02T15:20:45.408Z,4188
2018-07-02T15:21:52.779Z,4188
2018-07-02T15:23:00.922Z,4180
2018-07-02T15:24:08.939Z,4160
2018-07-02T15:25:17.003Z,4148